Nagaleader — VRDD5 — position and weather

sailwx.info

Track history (hours):
 
Tides and Currents Weather Stations Pressure Air Temp Water Temp Dewpoint Dewpoint Depression Visibility Wind Speed Wind Dir Waves Ship Positions

Nagaleader

Last reported at 2017-Sep-22 01:57 UTC. Time now 2017-Sep-23 11:22 UTC.
Position N 22°32' E 120°16'.

Length 113 m; draft 7 m.

Type: Cargo ship. MMSI: 477926700.

Date/timePositionNaut miles runAvg speedWind from/ knotsBaromVisibWave heightAir tempDewpointWater temp
2017-Sep-22 01:57N 22°32' E 120°16'0 0.0
2017-Sep-22 01:30N 22°32' E 120°16'0 0.0
2017-Sep-22 01:00N 22°32' E 120°16'0 0.0
2017-Sep-22 00:27N 22°32' E 120°16'0 0.0
2017-Sep-22 00:00N 22°32' E 120°16'0 0.0
2017-Sep-21 23:27N 22°32' E 120°16'0 0.9
2017-Sep-21 23:00N 22°31' E 120°16'4 7.0
2017-Sep-21 22:30N 22°33' E 120°12'612.9
2017-Sep-21 22:00N 22°39' E 120°09'612.3
2017-Sep-21 21:30N 22°44' E 120°07'6312.0
2017-Sep-21 16:16N 23°46' E 119°55'4510.5
2017-Sep-21 11:59N 24°32' E 119°56'510.9
2017-Sep-21 11:29N 24°37' E 119°57'510.9
2017-Sep-21 11:00N 24°42' E 119°57'611.1
2017-Sep-21 10:26N 24°48' E 119°57'511.0
2017-Sep-21 10:00N 24°53' E 119°57'510.9
2017-Sep-21 09:30N 24°59' E 119°57'610.9
2017-Sep-21 08:59N 25°04' E 119°58'67 9.4
2017-Sep-21 01:53N 26°08' E 119°35'2 6.5
2017-Sep-21 01:30N 26°07' E 119°33'4 8.3
2017-Sep-21 01:00N 26°03' E 119°31'3 6.3
2017-Sep-21 00:30N 26°01' E 119°29'0 0.7
2017-Sep-20 23:59N 26°00' E 119°29'0 0.0
2017-Sep-20 23:29N 26°00' E 119°29'0 0.0
2017-Sep-20 22:59N 26°00' E 119°29'0 0.0
2017-Sep-20 22:29N 26°00' E 119°29'0 0.0
2017-Sep-20 21:59N 26°00' E 119°29'0 0.0
2017-Sep-20 21:23N 26°00' E 119°29'0 0.0
2017-Sep-20 20:59N 26°00' E 119°29'0 0.0
2017-Sep-20 20:23N 26°00' E 119°29'0 0.0
2017-Sep-20 19:59N 26°00' E 119°29'0 0.0
2017-Sep-20 19:29N 26°00' E 119°29'0 0.0
2017-Sep-20 18:53N 26°00' E 119°29'0 0.0
2017-Sep-20 18:17N 26°00' E 119°29'0 0.0
2017-Sep-20 17:59N 26°00' E 119°29'0 0.0
2017-Sep-20 17:29N 26°00' E 119°29'0 0.0
2017-Sep-20 16:59N 26°00' E 119°29'0 0.0
2017-Sep-20 16:29N 26°00' E 119°29'0 0.0
2017-Sep-20 15:59N 26°00' E 119°29'0 0.0
2017-Sep-20 15:29N 26°00' E 119°29'0 0.0
2017-Sep-20 14:59N 26°00' E 119°29'0 0.0
2017-Sep-20 13:59N 26°00' E 119°29'0 0.0
2017-Sep-20 13:29N 26°00' E 119°29'0 0.0
2017-Sep-20 12:53N 26°00' E 119°29'0 0.0
2017-Sep-20 12:29N 26°00' E 119°29'0 0.0
2017-Sep-20 11:53N 26°00' E 119°29'0 0.0
2017-Sep-20 11:17N 26°00' E 119°29'0 0.0
2017-Sep-20 10:59N 26°00' E 119°29'0 0.0
2017-Sep-20 10:25N 26°00' E 119°29'0 0.0
2017-Sep-20 09:47N 26°00' E 119°29'0 0.0
2017-Sep-20 09:29N 26°00' E 119°29'0 0.0
2017-Sep-20 08:47N 26°00' E 119°29'0 0.0
2017-Sep-20 08:29N 26°00' E 119°29'0 0.0
2017-Sep-20 07:59N 26°00' E 119°29'0 0.0
2017-Sep-20 07:23N 26°00' E 119°29'0 0.0
2017-Sep-20 06:59N 26°00' E 119°29'0 0.0
2017-Sep-20 06:29N 26°00' E 119°29'0 0.0
2017-Sep-20 05:59N 26°00' E 119°29'0 0.0
2017-Sep-20 05:29N 26°00' E 119°29'0 0.0
2017-Sep-20 04:53N 26°00' E 119°29'0 0.0
2017-Sep-20 04:29N 26°00' E 119°29'0 0.0
2017-Sep-20 03:59N 26°00' E 119°29'0 0.0
2017-Sep-20 03:29N 26°00' E 119°29'0 0.0
2017-Sep-20 02:59N 26°00' E 119°29'0 0.0
2017-Sep-20 02:29N 26°00' E 119°29'0 0.0
2017-Sep-20 01:59N 26°00' E 119°29'0 0.0
2017-Sep-20 01:23N 26°00' E 119°29'0 0.0
2017-Sep-20 00:59N 26°00' E 119°29'0 0.0
2017-Sep-20 00:23N 26°00' E 119°29'0 0.0
2017-Sep-20 00:00N 26°00' E 119°29'2 4.0
2017-Sep-19 23:30N 26°02' E 119°30'611.4
2017-Sep-19 23:00N 26°07' E 119°33'710.2
2017-Sep-19 22:20N 26°06' E 119°41'64 9.6
2017-Sep-19 15:42N 25°04' E 119°58'311.4
2017-Sep-19 15:24N 25°01' E 119°58'411.3
2017-Sep-19 15:00N 24°56' E 119°57'1111.2
2017-Sep-19 14:00N 24°45' E 119°57'611.3
2017-Sep-19 13:30N 24°40' E 119°57'611.7
2017-Sep-19 13:00N 24°34' E 119°56'611.9
2017-Sep-19 12:29N 24°28' E 119°56'612.2
2017-Sep-19 12:00N 24°22' E 119°56'3213.5
2017-Sep-19 09:39N 23°50' E 119°55'213.3
2017-Sep-19 09:30N 23°48' E 119°55'613.0
2017-Sep-19 09:00N 23°41' E 119°55'912.4
2017-Sep-19 08:19N 23°33' E 119°55'411.9
2017-Sep-19 08:00N 23°29' E 119°55'611.4
2017-Sep-19 07:30N 23°23' E 119°56'611.1
2017-Sep-19 07:00N 23°18' E 119°57'511.0
2017-Sep-19 06:30N 23°13' E 119°57'611.0
2017-Sep-19 05:57N 23°07' E 119°59'510.7
2017-Sep-19 05:30N 23°02' E 119°60'510.5
2017-Sep-19 05:00N 22°57' E 120°02'510.5
2017-Sep-19 04:31N 22°52' E 120°04'510.7
2017-Sep-19 04:00N 22°47' E 120°05'611.4
2017-Sep-19 03:30N 22°42' E 120°08'611.8
2017-Sep-19 03:00N 22°37' E 120°11'510.6
2017-Sep-19 02:30N 22°33' E 120°15'4 8.4
2017-Sep-19 02:00N 22°33' E 120°20'0 0.0
2017-Sep-18 12:38N 22°33' E 120°20'0 2.2
2017-Sep-18 12:27N 22°33' E 120°19'4 8.6
2017-Sep-18 12:00N 22°32' E 120°15'3 6.4
2017-Sep-18 11:30N 22°31' E 120°12'0 0.1
2017-Sep-18 10:59N 22°31' E 120°12'0 0.4
2017-Sep-18 10:30N 22°30' E 120°12'1 2.9
2017-Sep-18 10:00N 22°32' E 120°12'611.2
2017-Sep-18 09:30N 22°37' E 120°10'612.0
2017-Sep-18 09:00N 22°43' E 120°08'611.3
2017-Sep-18 08:30N 22°48' E 120°05'611.4
2017-Sep-18 08:00N 22°53' E 120°03'612.0
2017-Sep-18 07:30N 22°59' E 120°01'2312.5
2017-Sep-18 05:41N 23°21' E 119°55'213.5
2017-Sep-18 05:30N 23°24' E 119°55'713.9
2017-Sep-18 05:00N 23°30' E 119°55'713.9
2017-Sep-18 04:29N 23°38' E 119°55'713.5
2017-Sep-18 03:58N 23°45' E 119°55'14211.3
2017-Sep-17 15:23N 26°06' E 119°41'511.3
2017-Sep-17 14:54N 26°08' E 119°35'511.4
2017-Sep-17 14:30N 26°05' E 119°32'4 9.0
2017-Sep-17 14:00N 26°01' E 119°29'1 1.1
2017-Sep-17 13:20N 26°00' E 119°29'0 0.0
2017-Sep-17 12:56N 26°00' E 119°29'0 0.0
2017-Sep-17 12:26N 26°00' E 119°29'0 0.0
2017-Sep-17 11:56N 26°00' E 119°29'0 0.0
2017-Sep-17 11:26N 26°00' E 119°29'0 0.0
2017-Sep-17 10:56N 26°00' E 119°29'0 0.0
2017-Sep-17 10:08N 26°00' E 119°29'0 0.0
2017-Sep-17 09:44N 26°00' E 119°29'0 0.0
2017-Sep-17 09:26N 26°00' E 119°29'0 0.0
2017-Sep-17 08:50N 26°00' E 119°29'0 0.0
2017-Sep-17 08:26N 26°00' E 119°29'0 0.0
2017-Sep-17 07:56N 26°00' E 119°29'0 0.0
2017-Sep-17 07:26N 26°00' E 119°29'0 0.0
2017-Sep-17 06:56N 26°00' E 119°29'0 0.0
2017-Sep-17 06:14N 26°00' E 119°29'0 0.0
2017-Sep-17 05:56N 26°00' E 119°29'0 0.0
2017-Sep-17 05:14N 26°00' E 119°29'0 0.0
2017-Sep-17 04:56N 26°00' E 119°29'0 0.0
2017-Sep-17 04:02N 26°00' E 119°29'0 0.0
2017-Sep-17 03:50N 26°00' E 119°29'0 0.0
2017-Sep-17 03:26N 26°00' E 119°29'0 0.0
2017-Sep-17 02:50N 26°00' E 119°29'0 0.0
2017-Sep-17 02:26N 26°00' E 119°29'0 0.0
2017-Sep-17 01:56N 26°00' E 119°29'0 0.0
2017-Sep-17 01:26N 26°00' E 119°29'0 0.0
2017-Sep-17 00:56N 26°00' E 119°29'0 0.0
2017-Sep-17 00:26N 26°00' E 119°29'0 0.0
2017-Sep-16 23:56N 26°00' E 119°29'0 0.0
2017-Sep-16 23:26N 26°00' E 119°29'0 0.0
2017-Sep-16 22:50N 26°00' E 119°29'0 0.0
2017-Sep-16 22:26N 26°00' E 119°29'0 0.1
2017-Sep-16 22:00N 26°00' E 119°29'3 5.4
2017-Sep-16 21:30N 26°03' E 119°30'612.4
2017-Sep-16 21:00N 26°08' E 119°35'611.5
2017-Sep-16 20:29N 26°06' E 119°41'62 9.1
2017-Sep-16 13:40N 25°04' E 119°37'911.4
2017-Sep-16 12:50N 24°55' E 119°40'411.1
2017-Sep-16 12:30N 24°51' E 119°41'510.7
2017-Sep-16 11:59N 24°46' E 119°43'510.8
2017-Sep-16 11:29N 24°41' E 119°45'510.5
2017-Sep-16 10:59N 24°36' E 119°46'510.9
2017-Sep-16 10:29N 24°30' E 119°47'1311.5
2017-Sep-16 09:23N 24°18' E 119°51'811.9
2017-Sep-16 08:44N 24°11' E 119°53'1112.1
2017-Sep-16 07:52N 24°00' E 119°55'512.1
2017-Sep-16 07:26N 23°55' E 119°55'1312.4
2017-Sep-16 06:23N 23°42' E 119°56'3711.5
2017-Sep-16 03:09N 23°05' E 119°58'1711.1
2017-Sep-16 01:39N 22°49' E 120°05'211.1
2017-Sep-16 01:29N 22°48' E 120°05'611.4
2017-Sep-16 01:01N 22°43' E 120°08'611.8
2017-Sep-16 00:30N 22°37' E 120°10'510.9
2017-Sep-16 00:00N 22°33' E 120°14'5 8.9
2017-Sep-15 23:30N 22°33' E 120°18'1 1.3
2017-Sep-15 22:59N 22°34' E 120°19'0 0.0
2017-Sep-15 21:11N 22°34' E 120°19'0 0.0
2017-Sep-15 20:59N 22°34' E 120°19'0 0.0
2017-Sep-15 20:29N 22°34' E 120°19'0 0.0
2017-Sep-15 19:59N 22°34' E 120°19'0 0.0
2017-Sep-15 19:29N 22°34' E 120°19'0 0.0
2017-Sep-15 18:59N 22°34' E 120°19'0 0.0
2017-Sep-15 18:29N 22°34' E 120°19'0 0.0
2017-Sep-15 17:56N 22°34' E 120°19'0 0.0
2017-Sep-15 17:28N 22°34' E 120°19'0 0.0
2017-Sep-15 16:58N 22°34' E 120°19'0 0.0
2017-Sep-15 16:16N 22°34' E 120°19'0 0.0
2017-Sep-15 15:52N 22°34' E 120°19'0 0.0
2017-Sep-15 15:04N 22°34' E 120°19'0 0.0
2017-Sep-15 14:58N 22°34' E 120°19'1 0.2
2017-Sep-15 08:06N 22°33' E 120°20'0 2.9
2017-Sep-15 07:57N 22°33' E 120°19'4 8.4
2017-Sep-15 07:30N 22°32' E 120°15'1 2.6
2017-Sep-15 07:00N 22°32' E 120°14'2 3.6
2017-Sep-15 06:30N 22°31' E 120°12'3 6.2
2017-Sep-15 06:00N 22°34' E 120°11'611.4
2017-Sep-15 05:31N 22°40' E 120°09'611.4
2017-Sep-15 05:00N 22°45' E 120°07'11711.3
2017-Sep-14 18:39N 24°41' E 119°57'210.8
2017-Sep-14 18:30N 24°43' E 119°57'611.1
2017-Sep-14 18:00N 24°48' E 119°57'711.0
2017-Sep-14 17:23N 24°55' E 119°58'410.9
2017-Sep-14 17:00N 24°59' E 119°59'610.6
2017-Sep-14 16:28N 25°05' E 119°59'610.8
2017-Sep-14 15:54N 25°11' E 119°60'6110.0
2017-Sep-14 09:47N 26°08' E 119°35'310.2
2017-Sep-14 09:30N 26°06' E 119°33'5 9.6
2017-Sep-14 09:00N 26°02' E 119°30'2 4.2
2017-Sep-14 08:26N 26°00' E 119°29'0 0.1
2017-Sep-14 07:50N 26°00' E 119°29'0 0.0
2017-Sep-14 07:26N 26°00' E 119°29'0 0.0
2017-Sep-14 06:38N 26°00' E 119°29'0 0.0
2017-Sep-14 06:14N 26°00' E 119°29'0 0.0
2017-Sep-14 05:56N 26°00' E 119°29'0 0.0
2017-Sep-14 05:26N 26°00' E 119°29'0 0.0
2017-Sep-14 04:56N 26°00' E 119°29'0 0.0
2017-Sep-14 04:20N 26°00' E 119°29'0 0.0
2017-Sep-14 03:56N 26°00' E 119°29'0 0.0
2017-Sep-14 03:20N 26°00' E 119°29'0 0.0
2017-Sep-14 02:50N 26°00' E 119°29'0 0.0
2017-Sep-14 02:26N 26°00' E 119°29'0 0.0
2017-Sep-14 01:56N 26°00' E 119°29'0 0.0
2017-Sep-14 01:26N 26°00' E 119°29'0 0.0
2017-Sep-14 00:56N 26°00' E 119°29'0 0.0
2017-Sep-14 00:26N 26°00' E 119°29'0 0.0
2017-Sep-13 23:56N 26°00' E 119°29'0 0.0
2017-Sep-13 23:08N 26°00' E 119°29'0 0.0
2017-Sep-13 22:56N 26°00' E 119°29'0 0.0
2017-Sep-13 22:26N 26°00' E 119°29'0 0.0
2017-Sep-13 21:50N 26°00' E 119°29'0 0.0
2017-Sep-13 21:26N 26°00' E 119°29'0 0.0
2017-Sep-13 20:56N 26°00' E 119°29'0 0.0
2017-Sep-13 20:20N 26°00' E 119°29'0 0.0
2017-Sep-13 19:56N 26°00' E 119°29'0 0.0
2017-Sep-13 19:26N 26°00' E 119°29'0 0.0
2017-Sep-13 18:50N 26°00' E 119°29'0 0.0
2017-Sep-13 18:30N 26°00' E 119°29'0 0.9
2017-Sep-13 18:00N 26°00' E 119°29'510.4
2017-Sep-13 17:30N 26°05' E 119°32'810.8
2017-Sep-13 16:44N 26°06' E 119°41'49 6.9
2017-Sep-13 09:34N 25°17' E 119°37'311.7
2017-Sep-13 09:20N 25°18' E 119°34'411.7
2017-Sep-13 09:00N 25°19' E 119°30'510.3
2017-Sep-13 08:30N 25°21' E 119°25'1 1.7
2017-Sep-13 08:00N 25°21' E 119°25'0 0.2
2017-Sep-13 07:30N 25°21' E 119°25'0 0.0
2017-Sep-13 07:00N 25°21' E 119°25'0 0.0
2017-Sep-13 06:30N 25°21' E 119°25'0 0.0
2017-Sep-13 06:00N 25°21' E 119°25'0 0.0
2017-Sep-13 05:30N 25°21' E 119°25'0 0.0
2017-Sep-13 04:42N 25°21' E 119°25'0 0.1
2017-Sep-13 04:30N 25°21' E 119°25'0 0.0
2017-Sep-13 03:54N 25°21' E 119°25'0 0.0
2017-Sep-13 03:30N 25°21' E 119°25'0 0.0
2017-Sep-13 03:00N 25°21' E 119°25'0 0.1
2017-Sep-13 02:24N 25°21' E 119°25'0 0.1
2017-Sep-13 02:00N 25°21' E 119°25'0 0.1
2017-Sep-13 01:29N 25°21' E 119°25'0 0.0
2017-Sep-13 00:54N 25°21' E 119°25'0 0.1
2017-Sep-13 00:30N 25°21' E 119°25'0 0.0
2017-Sep-12 23:54N 25°21' E 119°25'0 0.0
2017-Sep-12 23:30N 25°21' E 119°25'0 0.0
2017-Sep-12 22:59N 25°21' E 119°25'0 0.1
2017-Sep-12 22:23N 25°21' E 119°25'0 0.0
2017-Sep-12 21:59N 25°21' E 119°25'0 0.0
2017-Sep-12 21:29N 25°21' E 119°25'0 0.0
2017-Sep-12 20:59N 25°21' E 119°25'0 0.0
2017-Sep-12 20:23N 25°21' E 119°25'0 0.2
2017-Sep-12 19:59N 25°21' E 119°25'0 0.1
2017-Sep-12 19:29N 25°21' E 119°25'0 0.0
2017-Sep-12 18:53N 25°21' E 119°25'0 0.0
2017-Sep-12 18:23N 25°21' E 119°25'0 0.1
2017-Sep-12 17:59N 25°21' E 119°25'0 0.0
2017-Sep-12 17:11N 25°21' E 119°25'0 0.0
2017-Sep-12 16:59N 25°21' E 119°25'0 0.0
2017-Sep-12 16:29N 25°21' E 119°25'0 0.0
2017-Sep-12 15:53N 25°21' E 119°25'0 0.0
2017-Sep-12 15:17N 25°21' E 119°25'0 0.2
2017-Sep-12 14:59N 25°21' E 119°25'0 0.1
2017-Sep-12 14:23N 25°21' E 119°25'0 0.1
2017-Sep-12 13:29N 25°21' E 119°25'0 0.0
2017-Sep-12 12:59N 25°21' E 119°25'0 0.0
2017-Sep-12 12:29N 25°21' E 119°25'0 0.0
2017-Sep-12 11:59N 25°21' E 119°25'0 0.1
2017-Sep-12 11:29N 25°21' E 119°25'0 0.1
2017-Sep-12 10:59N 25°21' E 119°25'0 0.0
2017-Sep-12 10:24N 25°21' E 119°25'0 0.0
2017-Sep-12 10:00N 25°21' E 119°25'0 0.0
2017-Sep-12 09:30N 25°21' E 119°25'0 0.0
2017-Sep-12 09:01N 25°21' E 119°25'0 0.2
2017-Sep-12 08:30N 25°21' E 119°25'3 6.5
2017-Sep-12 08:00N 25°18' E 119°25'510.1
2017-Sep-12 07:27N 25°13' E 119°25'5412.0
2017-Sep-12 02:55N 24°18' E 119°25'813.1
2017-Sep-12 02:20N 24°11' E 119°25'  
Track history (hours):
 
Tides and Currents Weather Stations Pressure Air Temp Water Temp Dewpoint Dewpoint Depression Visibility Wind Speed Wind Dir Waves Ship Positions

Nagaleader

Last reported at 2017-Sep-22 01:57 UTC. Time now 2017-Sep-23 11:22 UTC.
Position N 22°32' E 120°16'.

Length 113 m; draft 7 m.

Type: Cargo ship. MMSI: 477926700.

Date/timePositionNaut miles runAvg speedWind from/ knotsBaromVisibWave heightAir tempDewpointWater temp
2017-Sep-22 01:57N 22°32' E 120°16'0 0.0
2017-Sep-22 01:30N 22°32' E 120°16'0 0.0
2017-Sep-22 01:00N 22°32' E 120°16'0 0.0
2017-Sep-22 00:27N 22°32' E 120°16'0 0.0
2017-Sep-22 00:00N 22°32' E 120°16'0 0.0
2017-Sep-21 23:27N 22°32' E 120°16'0 0.9
2017-Sep-21 23:00N 22°31' E 120°16'4 7.0
2017-Sep-21 22:30N 22°33' E 120°12'612.9
2017-Sep-21 22:00N 22°39' E 120°09'612.3
2017-Sep-21 21:30N 22°44' E 120°07'6312.0
2017-Sep-21 16:16N 23°46' E 119°55'4510.5
2017-Sep-21 11:59N 24°32' E 119°56'510.9
2017-Sep-21 11:29N 24°37' E 119°57'510.9
2017-Sep-21 11:00N 24°42' E 119°57'611.1
2017-Sep-21 10:26N 24°48' E 119°57'511.0
2017-Sep-21 10:00N 24°53' E 119°57'510.9
2017-Sep-21 09:30N 24°59' E 119°57'610.9
2017-Sep-21 08:59N 25°04' E 119°58'67 9.4
2017-Sep-21 01:53N 26°08' E 119°35'2 6.5
2017-Sep-21 01:30N 26°07' E 119°33'4 8.3
2017-Sep-21 01:00N 26°03' E 119°31'3 6.3
2017-Sep-21 00:30N 26°01' E 119°29'0 0.7
2017-Sep-20 23:59N 26°00' E 119°29'0 0.0
2017-Sep-20 23:29N 26°00' E 119°29'0 0.0
2017-Sep-20 22:59N 26°00' E 119°29'0 0.0
2017-Sep-20 22:29N 26°00' E 119°29'0 0.0
2017-Sep-20 21:59N 26°00' E 119°29'0 0.0
2017-Sep-20 21:23N 26°00' E 119°29'0 0.0
2017-Sep-20 20:59N 26°00' E 119°29'0 0.0
2017-Sep-20 20:23N 26°00' E 119°29'0 0.0
2017-Sep-20 19:59N 26°00' E 119°29'0 0.0
2017-Sep-20 19:29N 26°00' E 119°29'0 0.0
2017-Sep-20 18:53N 26°00' E 119°29'0 0.0
2017-Sep-20 18:17N 26°00' E 119°29'0 0.0
2017-Sep-20 17:59N 26°00' E 119°29'0 0.0
2017-Sep-20 17:29N 26°00' E 119°29'0 0.0
2017-Sep-20 16:59N 26°00' E 119°29'0 0.0
2017-Sep-20 16:29N 26°00' E 119°29'0 0.0
2017-Sep-20 15:59N 26°00' E 119°29'0 0.0
2017-Sep-20 15:29N 26°00' E 119°29'0 0.0
2017-Sep-20 14:59N 26°00' E 119°29'0 0.0
2017-Sep-20 13:59N 26°00' E 119°29'0 0.0
2017-Sep-20 13:29N 26°00' E 119°29'0 0.0
2017-Sep-20 12:53N 26°00' E 119°29'0 0.0
2017-Sep-20 12:29N 26°00' E 119°29'0 0.0
2017-Sep-20 11:53N 26°00' E 119°29'0 0.0
2017-Sep-20 11:17N 26°00' E 119°29'0 0.0
2017-Sep-20 10:59N 26°00' E 119°29'0 0.0
2017-Sep-20 10:25N 26°00' E 119°29'0 0.0
2017-Sep-20 09:47N 26°00' E 119°29'0 0.0
2017-Sep-20 09:29N 26°00' E 119°29'0 0.0
2017-Sep-20 08:47N 26°00' E 119°29'0 0.0
2017-Sep-20 08:29N 26°00' E 119°29'0 0.0
2017-Sep-20 07:59N 26°00' E 119°29'0 0.0
2017-Sep-20 07:23N 26°00' E 119°29'0 0.0
2017-Sep-20 06:59N 26°00' E 119°29'0 0.0
2017-Sep-20 06:29N 26°00' E 119°29'0 0.0
2017-Sep-20 05:59N 26°00' E 119°29'0 0.0
2017-Sep-20 05:29N 26°00' E 119°29'0 0.0
2017-Sep-20 04:53N 26°00' E 119°29'0 0.0
2017-Sep-20 04:29N 26°00' E 119°29'0 0.0
2017-Sep-20 03:59N 26°00' E 119°29'0 0.0
2017-Sep-20 03:29N 26°00' E 119°29'0 0.0
2017-Sep-20 02:59N 26°00' E 119°29'0 0.0
2017-Sep-20 02:29N 26°00' E 119°29'0 0.0
2017-Sep-20 01:59N 26°00' E 119°29'0 0.0
2017-Sep-20 01:23N 26°00' E 119°29'0 0.0
2017-Sep-20 00:59N 26°00' E 119°29'0 0.0
2017-Sep-20 00:23N 26°00' E 119°29'0 0.0
2017-Sep-20 00:00N 26°00' E 119°29'2 4.0
2017-Sep-19 23:30N 26°02' E 119°30'611.4
2017-Sep-19 23:00N 26°07' E 119°33'710.2
2017-Sep-19 22:20N 26°06' E 119°41'64 9.6
2017-Sep-19 15:42N 25°04' E 119°58'311.4
2017-Sep-19 15:24N 25°01' E 119°58'411.3
2017-Sep-19 15:00N 24°56' E 119°57'1111.2
2017-Sep-19 14:00N 24°45' E 119°57'611.3
2017-Sep-19 13:30N 24°40' E 119°57'611.7
2017-Sep-19 13:00N 24°34' E 119°56'611.9
2017-Sep-19 12:29N 24°28' E 119°56'612.2
2017-Sep-19 12:00N 24°22' E 119°56'3213.5
2017-Sep-19 09:39N 23°50' E 119°55'213.3
2017-Sep-19 09:30N 23°48' E 119°55'613.0
2017-Sep-19 09:00N 23°41' E 119°55'912.4
2017-Sep-19 08:19N 23°33' E 119°55'411.9
2017-Sep-19 08:00N 23°29' E 119°55'611.4
2017-Sep-19 07:30N 23°23' E 119°56'611.1
2017-Sep-19 07:00N 23°18' E 119°57'511.0
2017-Sep-19 06:30N 23°13' E 119°57'611.0
2017-Sep-19 05:57N 23°07' E 119°59'510.7
2017-Sep-19 05:30N 23°02' E 119°60'510.5
2017-Sep-19 05:00N 22°57' E 120°02'510.5
2017-Sep-19 04:31N 22°52' E 120°04'510.7
2017-Sep-19 04:00N 22°47' E 120°05'611.4
2017-Sep-19 03:30N 22°42' E 120°08'611.8
2017-Sep-19 03:00N 22°37' E 120°11'510.6
2017-Sep-19 02:30N 22°33' E 120°15'4 8.4
2017-Sep-19 02:00N 22°33' E 120°20'0 0.0
2017-Sep-18 12:38N 22°33' E 120°20'0 2.2
2017-Sep-18 12:27N 22°33' E 120°19'4 8.6
2017-Sep-18 12:00N 22°32' E 120°15'3 6.4
2017-Sep-18 11:30N 22°31' E 120°12'0 0.1
2017-Sep-18 10:59N 22°31' E 120°12'0 0.4
2017-Sep-18 10:30N 22°30' E 120°12'1 2.9
2017-Sep-18 10:00N 22°32' E 120°12'611.2
2017-Sep-18 09:30N 22°37' E 120°10'612.0
2017-Sep-18 09:00N 22°43' E 120°08'611.3
2017-Sep-18 08:30N 22°48' E 120°05'611.4
2017-Sep-18 08:00N 22°53' E 120°03'612.0
2017-Sep-18 07:30N 22°59' E 120°01'2312.5
2017-Sep-18 05:41N 23°21' E 119°55'213.5
2017-Sep-18 05:30N 23°24' E 119°55'713.9
2017-Sep-18 05:00N 23°30' E 119°55'713.9
2017-Sep-18 04:29N 23°38' E 119°55'713.5
2017-Sep-18 03:58N 23°45' E 119°55'14211.3
2017-Sep-17 15:23N 26°06' E 119°41'511.3
2017-Sep-17 14:54N 26°08' E 119°35'511.4
2017-Sep-17 14:30N 26°05' E 119°32'4 9.0
2017-Sep-17 14:00N 26°01' E 119°29'1 1.1
2017-Sep-17 13:20N 26°00' E 119°29'0 0.0
2017-Sep-17 12:56N 26°00' E 119°29'0 0.0
2017-Sep-17 12:26N 26°00' E 119°29'0 0.0
2017-Sep-17 11:56N 26°00' E 119°29'0 0.0
2017-Sep-17 11:26N 26°00' E 119°29'0 0.0
2017-Sep-17 10:56N 26°00' E 119°29'0 0.0
2017-Sep-17 10:08N 26°00' E 119°29'0 0.0
2017-Sep-17 09:44N 26°00' E 119°29'0 0.0
2017-Sep-17 09:26N 26°00' E 119°29'0 0.0
2017-Sep-17 08:50N 26°00' E 119°29'0 0.0
2017-Sep-17 08:26N 26°00' E 119°29'0 0.0
2017-Sep-17 07:56N 26°00' E 119°29'0 0.0
2017-Sep-17 07:26N 26°00' E 119°29'0 0.0
2017-Sep-17 06:56N 26°00' E 119°29'0 0.0
2017-Sep-17 06:14N 26°00' E 119°29'0 0.0
2017-Sep-17 05:56N 26°00' E 119°29'0 0.0
2017-Sep-17 05:14N 26°00' E 119°29'0 0.0
2017-Sep-17 04:56N 26°00' E 119°29'0 0.0
2017-Sep-17 04:02N 26°00' E 119°29'0 0.0
2017-Sep-17 03:50N 26°00' E 119°29'0 0.0
2017-Sep-17 03:26N 26°00' E 119°29'0 0.0
2017-Sep-17 02:50N 26°00' E 119°29'0 0.0
2017-Sep-17 02:26N 26°00' E 119°29'0 0.0
2017-Sep-17 01:56N 26°00' E 119°29'0 0.0
2017-Sep-17 01:26N 26°00' E 119°29'0 0.0
2017-Sep-17 00:56N 26°00' E 119°29'0 0.0
2017-Sep-17 00:26N 26°00' E 119°29'0 0.0
2017-Sep-16 23:56N 26°00' E 119°29'0 0.0
2017-Sep-16 23:26N 26°00' E 119°29'0 0.0
2017-Sep-16 22:50N 26°00' E 119°29'0 0.0
2017-Sep-16 22:26N 26°00' E 119°29'0 0.1
2017-Sep-16 22:00N 26°00' E 119°29'3 5.4
2017-Sep-16 21:30N 26°03' E 119°30'612.4
2017-Sep-16 21:00N 26°08' E 119°35'611.5
2017-Sep-16 20:29N 26°06' E 119°41'62 9.1
2017-Sep-16 13:40N 25°04' E 119°37'911.4
2017-Sep-16 12:50N 24°55' E 119°40'411.1
2017-Sep-16 12:30N 24°51' E 119°41'510.7
2017-Sep-16 11:59N 24°46' E 119°43'510.8
2017-Sep-16 11:29N 24°41' E 119°45'510.5
2017-Sep-16 10:59N 24°36' E 119°46'510.9
2017-Sep-16 10:29N 24°30' E 119°47'1311.5
2017-Sep-16 09:23N 24°18' E 119°51'811.9
2017-Sep-16 08:44N 24°11' E 119°53'1112.1
2017-Sep-16 07:52N 24°00' E 119°55'512.1
2017-Sep-16 07:26N 23°55' E 119°55'1312.4
2017-Sep-16 06:23N 23°42' E 119°56'3711.5
2017-Sep-16 03:09N 23°05' E 119°58'1711.1
2017-Sep-16 01:39N 22°49' E 120°05'211.1
2017-Sep-16 01:29N 22°48' E 120°05'611.4
2017-Sep-16 01:01N 22°43' E 120°08'611.8
2017-Sep-16 00:30N 22°37' E 120°10'510.9
2017-Sep-16 00:00N 22°33' E 120°14'5 8.9
2017-Sep-15 23:30N 22°33' E 120°18'1 1.3
2017-Sep-15 22:59N 22°34' E 120°19'0 0.0
2017-Sep-15 21:11N 22°34' E 120°19'0 0.0
2017-Sep-15 20:59N 22°34' E 120°19'0 0.0
2017-Sep-15 20:29N 22°34' E 120°19'0 0.0
2017-Sep-15 19:59N 22°34' E 120°19'0 0.0
2017-Sep-15 19:29N 22°34' E 120°19'0 0.0
2017-Sep-15 18:59N 22°34' E 120°19'0 0.0
2017-Sep-15 18:29N 22°34' E 120°19'0 0.0
2017-Sep-15 17:56N 22°34' E 120°19'0 0.0
2017-Sep-15 17:28N 22°34' E 120°19'0 0.0
2017-Sep-15 16:58N 22°34' E 120°19'0 0.0
2017-Sep-15 16:16N 22°34' E 120°19'0 0.0
2017-Sep-15 15:52N 22°34' E 120°19'0 0.0
2017-Sep-15 15:04N 22°34' E 120°19'0 0.0
2017-Sep-15 14:58N 22°34' E 120°19'1 0.2
2017-Sep-15 08:06N 22°33' E 120°20'0 2.9
2017-Sep-15 07:57N 22°33' E 120°19'4 8.4
2017-Sep-15 07:30N 22°32' E 120°15'1 2.6
2017-Sep-15 07:00N 22°32' E 120°14'2 3.6
2017-Sep-15 06:30N 22°31' E 120°12'3 6.2
2017-Sep-15 06:00N 22°34' E 120°11'611.4
2017-Sep-15 05:31N 22°40' E 120°09'611.4
2017-Sep-15 05:00N 22°45' E 120°07'11711.3
2017-Sep-14 18:39N 24°41' E 119°57'210.8
2017-Sep-14 18:30N 24°43' E 119°57'611.1
2017-Sep-14 18:00N 24°48' E 119°57'711.0
2017-Sep-14 17:23N 24°55' E 119°58'410.9
2017-Sep-14 17:00N 24°59' E 119°59'610.6
2017-Sep-14 16:28N 25°05' E 119°59'610.8
2017-Sep-14 15:54N 25°11' E 119°60'6110.0
2017-Sep-14 09:47N 26°08' E 119°35'310.2
2017-Sep-14 09:30N 26°06' E 119°33'5 9.6
2017-Sep-14 09:00N 26°02' E 119°30'2 4.2
2017-Sep-14 08:26N 26°00' E 119°29'0 0.1
2017-Sep-14 07:50N 26°00' E 119°29'0 0.0
2017-Sep-14 07:26N 26°00' E 119°29'0 0.0
2017-Sep-14 06:38N 26°00' E 119°29'0 0.0
2017-Sep-14 06:14N 26°00' E 119°29'0 0.0
2017-Sep-14 05:56N 26°00' E 119°29'0 0.0
2017-Sep-14 05:26N 26°00' E 119°29'0 0.0
2017-Sep-14 04:56N 26°00' E 119°29'0 0.0
2017-Sep-14 04:20N 26°00' E 119°29'0 0.0
2017-Sep-14 03:56N 26°00' E 119°29'0 0.0
2017-Sep-14 03:20N 26°00' E 119°29'0 0.0
2017-Sep-14 02:50N 26°00' E 119°29'0 0.0
2017-Sep-14 02:26N 26°00' E 119°29'0 0.0
2017-Sep-14 01:56N 26°00' E 119°29'0 0.0
2017-Sep-14 01:26N 26°00' E 119°29'0 0.0
2017-Sep-14 00:56N 26°00' E 119°29'0 0.0
2017-Sep-14 00:26N 26°00' E 119°29'0 0.0
2017-Sep-13 23:56N 26°00' E 119°29'0 0.0
2017-Sep-13 23:08N 26°00' E 119°29'0 0.0
2017-Sep-13 22:56N 26°00' E 119°29'0 0.0
2017-Sep-13 22:26N 26°00' E 119°29'0 0.0
2017-Sep-13 21:50N 26°00' E 119°29'0 0.0
2017-Sep-13 21:26N 26°00' E 119°29'0 0.0
2017-Sep-13 20:56N 26°00' E 119°29'0 0.0
2017-Sep-13 20:20N 26°00' E 119°29'0 0.0
2017-Sep-13 19:56N 26°00' E 119°29'0 0.0
2017-Sep-13 19:26N 26°00' E 119°29'0 0.0
2017-Sep-13 18:50N 26°00' E 119°29'0 0.0
2017-Sep-13 18:30N 26°00' E 119°29'0 0.9
2017-Sep-13 18:00N 26°00' E 119°29'510.4
2017-Sep-13 17:30N 26°05' E 119°32'810.8
2017-Sep-13 16:44N 26°06' E 119°41'49 6.9
2017-Sep-13 09:34N 25°17' E 119°37'311.7
2017-Sep-13 09:20N 25°18' E 119°34'411.7
2017-Sep-13 09:00N 25°19' E 119°30'510.3
2017-Sep-13 08:30N 25°21' E 119°25'1 1.7
2017-Sep-13 08:00N 25°21' E 119°25'0 0.2
2017-Sep-13 07:30N 25°21' E 119°25'0 0.0
2017-Sep-13 07:00N 25°21' E 119°25'0 0.0
2017-Sep-13 06:30N 25°21' E 119°25'0 0.0
2017-Sep-13 06:00N 25°21' E 119°25'0 0.0
2017-Sep-13 05:30N 25°21' E 119°25'0 0.0
2017-Sep-13 04:42N 25°21' E 119°25'0 0.1
2017-Sep-13 04:30N 25°21' E 119°25'0 0.0
2017-Sep-13 03:54N 25°21' E 119°25'0 0.0
2017-Sep-13 03:30N 25°21' E 119°25'0 0.0
2017-Sep-13 03:00N 25°21' E 119°25'0 0.1
2017-Sep-13 02:24N 25°21' E 119°25'0 0.1
2017-Sep-13 02:00N 25°21' E 119°25'0 0.1
2017-Sep-13 01:29N 25°21' E 119°25'0 0.0
2017-Sep-13 00:54N 25°21' E 119°25'0 0.1
2017-Sep-13 00:30N 25°21' E 119°25'0 0.0
2017-Sep-12 23:54N 25°21' E 119°25'0 0.0
2017-Sep-12 23:30N 25°21' E 119°25'0 0.0
2017-Sep-12 22:59N 25°21' E 119°25'0 0.1
2017-Sep-12 22:23N 25°21' E 119°25'0 0.0
2017-Sep-12 21:59N 25°21' E 119°25'0 0.0
2017-Sep-12 21:29N 25°21' E 119°25'0 0.0
2017-Sep-12 20:59N 25°21' E 119°25'0 0.0
2017-Sep-12 20:23N 25°21' E 119°25'0 0.2
2017-Sep-12 19:59N 25°21' E 119°25'0 0.1
2017-Sep-12 19:29N 25°21' E 119°25'0 0.0
2017-Sep-12 18:53N 25°21' E 119°25'0 0.0
2017-Sep-12 18:23N 25°21' E 119°25'0 0.1
2017-Sep-12 17:59N 25°21' E 119°25'0 0.0
2017-Sep-12 17:11N 25°21' E 119°25'0 0.0
2017-Sep-12 16:59N 25°21' E 119°25'0 0.0
2017-Sep-12 16:29N 25°21' E 119°25'0 0.0
2017-Sep-12 15:53N 25°21' E 119°25'0 0.0
2017-Sep-12 15:17N 25°21' E 119°25'0 0.2
2017-Sep-12 14:59N 25°21' E 119°25'0 0.1
2017-Sep-12 14:23N 25°21' E 119°25'0 0.1
2017-Sep-12 13:29N 25°21' E 119°25'0 0.0
2017-Sep-12 12:59N 25°21' E 119°25'0 0.0
2017-Sep-12 12:29N 25°21' E 119°25'0 0.0
2017-Sep-12 11:59N 25°21' E 119°25'0 0.1
2017-Sep-12 11:29N 25°21' E 119°25'0 0.1
2017-Sep-12 10:59N 25°21' E 119°25'0 0.0
2017-Sep-12 10:24N 25°21' E 119°25'0 0.0
2017-Sep-12 10:00N 25°21' E 119°25'0 0.0
2017-Sep-12 09:30N 25°21' E 119°25'0 0.0
2017-Sep-12 09:01N 25°21' E 119°25'0 0.2
2017-Sep-12 08:30N 25°21' E 119°25'3 6.5
2017-Sep-12 08:00N 25°18' E 119°25'510.1
2017-Sep-12 07:27N 25°13' E 119°25'5412.0
2017-Sep-12 02:55N 24°18' E 119°25'813.1
2017-Sep-12 02:20N 24°11' E 119°25'  

Dump ship's entire track history